sensor_id;sensor_type;location;lat;lon;timestamp;pressure;altitude;pressure_sealevel;temperature;humidity
49515;BME280;35415;47.870;16.058;2022-08-21T00:00:10;97038.31;;;18.37;71.05
49515;BME280;35415;47.870;16.058;2022-08-21T00:02:44;97045.88;;;18.31;70.82
49515;BME280;35415;47.870;16.058;2022-08-21T00:05:15;97036.25;;;18.34;71.09
49515;BME280;35415;47.870;16.058;2022-08-21T00:07:42;97043.16;;;18.31;70.85
49515;BME280;35415;47.870;16.058;2022-08-21T00:10:10;97046.16;;;18.30;70.92
49515;BME280;35415;47.870;16.058;2022-08-21T00:12:39;97058.69;;;18.31;71.20
49515;BME280;35415;47.870;16.058;2022-08-21T00:15:09;97034.00;;;18.27;70.97
49515;BME280;35415;47.870;16.058;2022-08-21T00:17:37;97040.56;;;18.26;71.04
49515;BME280;35415;47.870;16.058;2022-08-21T00:20:07;97047.16;;;18.25;70.84
49515;BME280;35415;47.870;16.058;2022-08-21T00:22:34;97042.03;;;18.24;70.91
49515;BME280;35415;47.870;16.058;2022-08-21T00:25:03;97033.38;;;18.22;70.89
49515;BME280;35415;47.870;16.058;2022-08-21T00:27:32;97030.19;;;18.20;71.24
49515;BME280;35415;47.870;16.058;2022-08-21T00:30:01;97024.25;;;18.18;71.42
49515;BME280;35415;47.870;16.058;2022-08-21T00:32:28;97024.25;;;18.18;71.52
49515;BME280;35415;47.870;16.058;2022-08-21T00:34:55;97022.50;;;18.13;71.63
49515;BME280;35415;47.870;16.058;2022-08-21T00:37:23;97026.00;;;18.14;72.13
49515;BME280;35415;47.870;16.058;2022-08-21T00:39:50;97011.94;;;18.03;72.44
49515;BME280;35415;47.870;16.058;2022-08-21T00:42:18;97012.75;;;18.03;72.25
49515;BME280;35415;47.870;16.058;2022-08-21T00:44:48;97023.47;;;18.09;72.68
49515;BME280;35415;47.870;16.058;2022-08-21T00:47:18;97026.03;;;18.05;72.62
49515;BME280;35415;47.870;16.058;2022-08-21T00:49:45;97014.34;;;18.04;72.61
49515;BME280;35415;47.870;16.058;2022-08-21T00:52:17;97022.03;;;18.02;72.95
49515;BME280;35415;47.870;16.058;2022-08-21T00:54:47;97009.22;;;18.03;73.14
49515;BME280;35415;47.870;16.058;2022-08-21T00:57:17;97013.06;;;18.02;72.93
49515;BME280;35415;47.870;16.058;2022-08-21T00:59:49;97006.03;;;18.01;72.81
49515;BME280;35415;47.870;16.058;2022-08-21T01:02:21;97007.63;;;18.02;72.92
49515;BME280;35415;47.870;16.058;2022-08-21T01:04:49;96989.69;;;18.01;72.83
49515;BME280;35415;47.870;16.058;2022-08-21T01:07:16;97001.38;;;18.01;72.99
49515;BME280;35415;47.870;16.058;2022-08-21T01:09:45;96997.88;;;18.01;72.80
49515;BME280;35415;47.870;16.058;2022-08-21T01:12:14;96990.34;;;17.98;72.64
49515;BME280;35415;47.870;16.058;2022-08-21T01:14:42;97003.00;;;18.02;72.93
49515;BME280;35415;47.870;16.058;2022-08-21T01:17:09;96992.91;;;18.03;72.64
49515;BME280;35415;47.870;16.058;2022-08-21T01:19:38;96989.06;;;18.04;72.57
49515;BME280;35415;47.870;16.058;2022-08-21T01:22:07;96991.31;;;18.02;72.33
49515;BME280;35415;47.870;16.058;2022-08-21T01:24:35;96991.63;;;18.00;72.80
49515;BME280;35415;47.870;16.058;2022-08-21T01:27:03;96987.94;;;18.05;72.45
49515;BME280;35415;47.870;16.058;2022-08-21T01:29:34;96991.59;;;18.09;72.41
49515;BME280;35415;47.870;16.058;2022-08-21T01:32:06;96989.34;;;18.11;72.20
49515;BME280;35415;47.870;16.058;2022-08-21T01:34:36;96985.50;;;18.12;72.16
49515;BME280;35415;47.870;16.058;2022-08-21T01:37:04;96985.69;;;18.16;72.06
49515;BME280;35415;47.870;16.058;2022-08-21T01:39:33;96970.63;;;18.10;71.98
49515;BME280;35415;47.870;16.058;2022-08-21T01:42:01;96965.19;;;18.10;72.18
49515;BME280;35415;47.870;16.058;2022-08-21T01:44:28;96977.19;;;18.17;72.07
49515;BME280;35415;47.870;16.058;2022-08-21T01:46:57;96964.22;;;18.14;71.91
49515;BME280;35415;47.870;16.058;2022-08-21T01:49:25;96969.03;;;18.17;71.81
49515;BME280;35415;47.870;16.058;2022-08-21T01:51:52;96949.66;;;18.10;72.00
49515;BME280;35415;47.870;16.058;2022-08-21T01:54:19;96961.34;;;18.19;71.82
49515;BME280;35415;47.870;16.058;2022-08-21T01:56:50;96956.69;;;18.20;71.70
49515;BME280;35415;47.870;16.058;2022-08-21T01:59:18;96953.97;;;18.20;71.49
49515;BME280;35415;47.870;16.058;2022-08-21T02:01:46;96948.84;;;18.18;71.26
49515;BME280;35415;47.870;16.058;2022-08-21T02:04:13;96949.78;;;18.22;71.38
49515;BME280;35415;47.870;16.058;2022-08-21T02:06:40;96940.81;;;18.22;71.44
49515;BME280;35415;47.870;16.058;2022-08-21T02:09:10;96936.03;;;18.19;71.24
49515;BME280;35415;47.870;16.058;2022-08-21T02:11:37;96946.09;;;18.27;71.02
49515;BME280;35415;47.870;16.058;2022-08-21T02:14:08;96924.50;;;18.22;70.81
49515;BME280;35415;47.870;16.058;2022-08-21T02:16:35;96942.72;;;18.30;70.89
49515;BME280;35415;47.870;16.058;2022-08-21T02:19:02;96928.28;;;18.29;70.79
49515;BME280;35415;47.870;16.058;2022-08-21T02:21:30;96929.59;;;18.32;70.44
49515;BME280;35415;47.870;16.058;2022-08-21T02:23:57;96926.22;;;18.35;70.50
49515;BME280;35415;47.870;16.058;2022-08-21T02:26:24;96918.84;;;18.36;70.27
49515;BME280;35415;47.870;16.058;2022-08-21T02:28:52;96898.06;;;18.22;70.02
49515;BME280;35415;47.870;16.058;2022-08-21T02:31:20;96923.63;;;18.39;69.90
49515;BME280;35415;47.870;16.058;2022-08-21T02:33:47;96922.50;;;18.40;69.87
49515;BME280;35415;47.870;16.058;2022-08-21T02:36:14;96918.66;;;18.41;69.94
49515;BME280;35415;47.870;16.058;2022-08-21T02:38:42;96915.59;;;18.42;69.48
49515;BME280;35415;47.870;16.058;2022-08-21T02:41:14;96899.66;;;18.32;69.35
49515;BME280;35415;47.870;16.058;2022-08-21T02:43:42;96898.34;;;18.38;69.21
49515;BME280;35415;47.870;16.058;2022-08-21T02:46:12;96909.66;;;18.49;69.32
49515;BME280;35415;47.870;16.058;2022-08-21T02:48:43;96905.50;;;18.51;69.14
49515;BME280;35415;47.870;16.058;2022-08-21T02:51:12;96896.19;;;18.52;69.19
49515;BME280;35415;47.870;16.058;2022-08-21T02:53:40;96902.75;;;18.51;69.24
49515;BME280;35415;47.870;16.058;2022-08-21T02:56:09;96899.25;;;18.51;69.23
49515;BME280;35415;47.870;16.058;2022-08-21T02:58:38;96909.16;;;18.55;69.34
49515;BME280;35415;47.870;16.058;2022-08-21T03:01:07;96916.84;;;18.53;69.22
49515;BME280;35415;47.870;16.058;2022-08-21T03:03:36;96910.75;;;18.56;68.91
49515;BME280;35415;47.870;16.058;2022-08-21T03:06:06;96920.19;;;18.59;68.58
49515;BME280;35415;47.870;16.058;2022-08-21T03:08:35;96924.50;;;18.60;68.78
49515;BME280;35415;47.870;16.058;2022-08-21T03:11:03;96930.13;;;18.63;68.54
49515;BME280;35415;47.870;16.058;2022-08-21T03:13:30;96919.53;;;18.62;68.06
49515;BME280;35415;47.870;16.058;2022-08-21T03:15:57;96910.75;;;18.65;67.72
49515;BME280;35415;47.870;16.058;2022-08-21T03:18:25;96927.09;;;18.65;67.70
49515;BME280;35415;47.870;16.058;2022-08-21T03:20:52;96907.56;;;18.54;67.50
49515;BME280;35415;47.870;16.058;2022-08-21T03:23:21;96914.41;;;18.69;67.49
49515;BME280;35415;47.870;16.058;2022-08-21T03:25:48;96924.97;;;18.71;67.42
49515;BME280;35415;47.870;16.058;2022-08-21T03:28:20;96916.47;;;18.72;67.24
49515;BME280;35415;47.870;16.058;2022-08-21T03:30:49;96922.38;;;18.74;67.52
49515;BME280;35415;47.870;16.058;2022-08-21T03:33:18;96934.09;;;18.75;67.13
49515;BME280;35415;47.870;16.058;2022-08-21T03:35:47;96926.84;;;18.79;67.00
49515;BME280;35415;47.870;16.058;2022-08-21T03:38:16;96921.06;;;18.80;66.85
49515;BME280;35415;47.870;16.058;2022-08-21T03:40:46;96936.31;;;18.81;66.94
49515;BME280;35415;47.870;16.058;2022-08-21T03:43:13;96916.09;;;18.82;66.88
49515;BME280;35415;47.870;16.058;2022-08-21T03:45:40;96912.25;;;18.83;67.21
49515;BME280;35415;47.870;16.058;2022-08-21T03:48:08;96914.66;;;18.85;66.80
49515;BME280;35415;47.870;16.058;2022-08-21T03:50:40;96914.97;;;18.83;66.85
49515;BME280;35415;47.870;16.058;2022-08-21T03:53:14;96917.50;;;18.88;66.64
49515;BME280;35415;47.870;16.058;2022-08-21T03:55:41;96919.56;;;18.91;66.45
49515;BME280;35415;47.870;16.058;2022-08-21T03:58:10;96919.44;;;18.88;66.48
49515;BME280;35415;47.870;16.058;2022-08-21T04:00:37;96937.97;;;18.94;66.39
49515;BME280;35415;47.870;16.058;2022-08-21T04:03:04;96932.53;;;18.94;66.76
49515;BME280;35415;47.870;16.058;2022-08-21T04:05:32;96924.03;;;18.96;66.69
49515;BME280;35415;47.870;16.058;2022-08-21T04:08:01;96940.03;;;18.98;66.79
49515;BME280;35415;47.870;16.058;2022-08-21T04:10:31;96926.47;;;18.89;66.90
49515;BME280;35415;47.870;16.058;2022-08-21T04:13:00;96933.97;;;19.01;67.20
49515;BME280;35415;47.870;16.058;2022-08-21T04:15:28;96964.41;;;19.03;67.54
49515;BME280;35415;47.870;16.058;2022-08-21T04:17:55;96939.41;;;19.01;67.69
49515;BME280;35415;47.870;16.058;2022-08-21T04:20:23;96958.94;;;19.03;67.89
49515;BME280;35415;47.870;16.058;2022-08-21T04:22:50;96969.38;;;19.01;67.94
49515;BME280;35415;47.870;16.058;2022-08-21T04:25:18;96970.53;;;19.00;68.02
49515;BME280;35415;47.870;16.058;2022-08-21T04:27:46;96967.81;;;18.91;68.06
49515;BME280;35415;47.870;16.058;2022-08-21T04:30:14;96978.19;;;18.98;68.03
49515;BME280;35415;47.870;16.058;2022-08-21T04:32:45;96956.66;;;18.84;67.91
49515;BME280;35415;47.870;16.058;2022-08-21T04:35:14;96987.19;;;18.98;68.31
49515;BME280;35415;47.870;16.058;2022-08-21T04:37:41;96983.34;;;18.99;68.04
49515;BME280;35415;47.870;16.058;2022-08-21T04:40:10;96987.19;;;18.98;68.13
49515;BME280;35415;47.870;16.058;2022-08-21T04:42:43;96996.19;;;18.99;68.03
49515;BME280;35415;47.870;16.058;2022-08-21T04:45:16;97007.88;;;18.99;68.07
49515;BME280;35415;47.870;16.058;2022-08-21T04:47:48;96983.56;;;18.85;68.20
49515;BME280;35415;47.870;16.058;2022-08-21T04:50:16;97012.19;;;19.00;68.41
49515;BME280;35415;47.870;16.058;2022-08-21T04:52:43;97021.50;;;18.99;68.52
49515;BME280;35415;47.870;16.058;2022-08-21T04:55:11;97027.44;;;19.01;68.59
49515;BME280;35415;47.870;16.058;2022-08-21T04:57:39;97025.16;;;19.03;68.68
49515;BME280;35415;47.870;16.058;2022-08-21T05:00:09;97021.97;;;19.01;69.27
49515;BME280;35415;47.870;16.058;2022-08-21T05:02:39;97022.78;;;19.02;69.56
49515;BME280;35415;47.870;16.058;2022-08-21T05:05:09;97016.28;;;18.85;69.39
49515;BME280;35415;47.870;16.058;2022-08-21T05:07:37;97028.72;;;18.95;70.33
49515;BME280;35415;47.870;16.058;2022-08-21T05:10:05;97029.03;;;18.93;69.78
49515;BME280;35415;47.870;16.058;2022-08-21T05:12:34;97035.63;;;18.92;70.35
49515;BME280;35415;47.870;16.058;2022-08-21T05:15:03;97033.56;;;18.89;70.03
49515;BME280;35415;47.870;16.058;2022-08-21T05:17:30;97039.00;;;18.89;70.41
49515;BME280;35415;47.870;16.058;2022-08-21T05:19:57;97034.22;;;18.86;70.45
49515;BME280;35415;47.870;16.058;2022-08-21T05:22:25;97035.50;;;18.89;70.32
49515;BME280;35415;47.870;16.058;2022-08-21T05:24:52;97037.88;;;18.90;70.92
49515;BME280;35415;47.870;16.058;2022-08-21T05:27:20;97035.03;;;18.87;70.97
49515;BME280;35415;47.870;16.058;2022-08-21T05:29:46;97038.53;;;18.87;71.04
49515;BME280;35415;47.870;16.058;2022-08-21T05:32:14;97040.78;;;18.85;71.90
49515;BME280;35415;47.870;16.058;2022-08-21T05:34:41;97041.44;;;18.82;72.56
49515;BME280;35415;47.870;16.058;2022-08-21T05:37:11;97048.03;;;18.81;72.64
49515;BME280;35415;47.870;16.058;2022-08-21T05:39:40;97020.00;;;18.63;73.05
49515;BME280;35415;47.870;16.058;2022-08-21T05:42:07;97045.47;;;18.76;73.11
49515;BME280;35415;47.870;16.058;2022-08-21T05:44:34;97026.88;;;18.61;73.74
49515;BME280;35415;47.870;16.058;2022-08-21T05:47:05;97043.41;;;18.73;74.00
49515;BME280;35415;47.870;16.058;2022-08-21T05:49:33;97052.69;;;18.72;74.14
49515;BME280;35415;47.870;16.058;2022-08-21T05:52:00;97049.50;;;18.70;74.10
49515;BME280;35415;47.870;16.058;2022-08-21T05:54:27;97054.47;;;18.68;73.89
49515;BME280;35415;47.870;16.058;2022-08-21T05:56:56;97061.38;;;18.66;74.39
49515;BME280;35415;47.870;16.058;2022-08-21T05:59:23;97060.38;;;18.61;74.47
49515;BME280;35415;47.870;16.058;2022-08-21T06:01:50;97057.19;;;18.59;75.43
49515;BME280;35415;47.870;16.058;2022-08-21T06:04:18;97043.41;;;18.47;75.29
49515;BME280;35415;47.870;16.058;2022-08-21T06:06:45;97052.88;;;18.50;75.24
49515;BME280;35415;47.870;16.058;2022-08-21T06:09:14;97068.56;;;18.53;75.55
49515;BME280;35415;47.870;16.058;2022-08-21T06:11:41;97061.53;;;18.52;75.93
49515;BME280;35415;47.870;16.058;2022-08-21T06:14:09;97070.03;;;18.50;75.30
49515;BME280;35415;47.870;16.058;2022-08-21T06:16:37;97075.00;;;18.48;75.54
49515;BME280;35415;47.870;16.058;2022-08-21T06:19:04;97065.06;;;18.44;75.67
49515;BME280;35415;47.870;16.058;2022-08-21T06:21:31;97075.81;;;18.49;76.48
49515;BME280;35415;47.870;16.058;2022-08-21T06:23:58;97061.69;;;18.47;75.55
49515;BME280;35415;47.870;16.058;2022-08-21T06:26:25;97060.25;;;18.49;75.31
49515;BME280;35415;47.870;16.058;2022-08-21T06:28:53;97061.84;;;18.50;75.57
49515;BME280;35415;47.870;16.058;2022-08-21T06:31:24;97059.94;;;18.51;74.84
49515;BME280;35415;47.870;16.058;2022-08-21T06:33:52;97055.28;;;18.51;75.30
49515;BME280;35415;47.870;16.058;2022-08-21T06:36:19;97060.41;;;18.53;75.23
49515;BME280;35415;47.870;16.058;2022-08-21T06:38:47;97051.44;;;18.52;75.30
49515;BME280;35415;47.870;16.058;2022-08-21T06:41:15;97059.28;;;18.54;75.14
49515;BME280;35415;47.870;16.058;2022-08-21T06:43:42;97055.44;;;18.55;75.58
49515;BME280;35415;47.870;16.058;2022-08-21T06:46:10;97057.34;;;18.54;75.61
49515;BME280;35415;47.870;16.058;2022-08-21T06:48:39;97055.09;;;18.56;76.65
49515;BME280;35415;47.870;16.058;2022-08-21T06:51:07;97021.81;;;18.42;75.69
49515;BME280;35415;47.870;16.058;2022-08-21T06:53:35;97027.25;;;18.51;76.24
49515;BME280;35415;47.870;16.058;2022-08-21T06:56:06;97048.69;;;18.61;75.70
49515;BME280;35415;47.870;16.058;2022-08-21T06:58:34;97012.22;;;18.36;75.35
49515;BME280;35415;47.870;16.058;2022-08-21T07:01:01;97053.00;;;18.62;75.37
49515;BME280;35415;47.870;16.058;2022-08-21T07:03:31;97056.84;;;18.61;74.57
49515;BME280;35415;47.870;16.058;2022-08-21T07:06:01;97057.34;;;18.63;75.20
49515;BME280;35415;47.870;16.058;2022-08-21T07:08:28;97064.41;;;18.64;75.62
49515;BME280;35415;47.870;16.058;2022-08-21T07:10:58;97057.84;;;18.65;76.15
49515;BME280;35415;47.870;16.058;2022-08-21T07:13:26;97060.88;;;18.63;76.13
49515;BME280;35415;47.870;16.058;2022-08-21T07:15:55;97036.38;;;18.55;76.47
49515;BME280;35415;47.870;16.058;2022-08-21T07:18:23;97033.00;;;18.58;75.20
49515;BME280;35415;47.870;16.058;2022-08-21T07:20:50;97027.72;;;18.44;75.37
49515;BME280;35415;47.870;16.058;2022-08-21T07:23:23;97065.81;;;18.61;76.13
49515;BME280;35415;47.870;16.058;2022-08-21T07:25:54;97074.78;;;18.62;75.43
49515;BME280;35415;47.870;16.058;2022-08-21T07:28:21;97030.47;;;18.36;75.45
49515;BME280;35415;47.870;16.058;2022-08-21T07:30:51;97071.47;;;18.65;75.58
49515;BME280;35415;47.870;16.058;2022-08-21T07:33:18;97067.94;;;18.65;75.04
49515;BME280;35415;47.870;16.058;2022-08-21T07:35:45;97067.63;;;18.66;74.74
49515;BME280;35415;47.870;16.058;2022-08-21T07:38:13;97063.09;;;18.61;74.69
49515;BME280;35415;47.870;16.058;2022-08-21T07:40:42;97067.63;;;18.66;74.70
49515;BME280;35415;47.870;16.058;2022-08-21T07:43:09;97061.06;;;18.67;74.53
49515;BME280;35415;47.870;16.058;2022-08-21T07:45:37;97033.16;;;18.53;74.67
49515;BME280;35415;47.870;16.058;2022-08-21T07:48:05;97066.66;;;18.71;74.30
49515;BME280;35415;47.870;16.058;2022-08-21T07:50:32;97036.03;;;18.56;73.65
49515;BME280;35415;47.870;16.058;2022-08-21T07:52:59;97059.09;;;18.76;73.79
49515;BME280;35415;47.870;16.058;2022-08-21T07:55:27;97028.84;;;18.52;73.41
49515;BME280;35415;47.870;16.058;2022-08-21T07:57:56;97057.81;;;18.82;72.90
49515;BME280;35415;47.870;16.058;2022-08-21T08:00:26;97049.03;;;18.68;72.63
49515;BME280;35415;47.870;16.058;2022-08-21T08:02:54;97062.75;;;18.80;72.82
49515;BME280;35415;47.870;16.058;2022-08-21T08:05:24;97069.97;;;18.85;72.82
49515;BME280;35415;47.870;16.058;2022-08-21T08:07:53;97065.66;;;18.84;73.25
49515;BME280;35415;47.870;16.058;2022-08-21T08:10:21;97063.88;;;18.88;72.58
49515;BME280;35415;47.870;16.058;2022-08-21T08:12:48;97069.47;;;18.91;72.55
49515;BME280;35415;47.870;16.058;2022-08-21T08:15:21;97042.88;;;18.80;72.52
49515;BME280;35415;47.870;16.058;2022-08-21T08:17:49;97045.31;;;18.81;71.95
49515;BME280;35415;47.870;16.058;2022-08-21T08:20:18;97055.50;;;18.93;72.21
49515;BME280;35415;47.870;16.058;2022-08-21T08:22:46;97060.47;;;19.00;72.76
49515;BME280;35415;47.870;16.058;2022-08-21T08:25:14;97059.47;;;19.04;71.69
49515;BME280;35415;47.870;16.058;2022-08-21T08:27:42;97036.44;;;18.93;71.92
49515;BME280;35415;47.870;16.058;2022-08-21T08:30:12;97065.41;;;19.06;71.60
49515;BME280;35415;47.870;16.058;2022-08-21T08:32:41;97035.75;;;18.96;71.62
49515;BME280;35415;47.870;16.058;2022-08-21T08:35:10;97041.88;;;18.93;71.54
49515;BME280;35415;47.870;16.058;2022-08-21T08:37:38;97071.13;;;19.13;71.31
49515;BME280;35415;47.870;16.058;2022-08-21T08:40:09;97065.22;;;19.11;71.13
49515;BME280;35415;47.870;16.058;2022-08-21T08:42:37;97074.50;;;19.19;70.94
49515;BME280;35415;47.870;16.058;2022-08-21T08:45:07;97066.00;;;19.20;71.34
49515;BME280;35415;47.870;16.058;2022-08-21T08:47:37;97077.22;;;19.19;71.05
49515;BME280;35415;47.870;16.058;2022-08-21T08:50:10;97051.69;;;19.23;71.03
49515;BME280;35415;47.870;16.058;2022-08-21T08:52:45;96975.94;;;18.70;71.10
49515;BME280;35415;47.870;16.058;2022-08-21T08:55:17;97046.22;;;19.32;70.64
49515;BME280;35415;47.870;16.058;2022-08-21T08:57:47;97050.13;;;19.43;71.20
49515;BME280;35415;47.870;16.058;2022-08-21T09:00:21;97047.38;;;19.52;70.85
49515;BME280;35415;47.870;16.058;2022-08-21T09:02:54;97044.13;;;19.59;70.64
49515;BME280;35415;47.870;16.058;2022-08-21T09:05:25;97046.81;;;19.67;70.10
49515;BME280;35415;47.870;16.058;2022-08-21T09:10:50;97048.63;;;19.84;69.62
49515;BME280;35415;47.870;16.058;2022-08-21T09:13:23;97049.69;;;19.92;69.36
49515;BME280;35415;47.870;16.058;2022-08-21T09:16:02;97042.56;;;19.99;69.12
49515;BME280;35415;47.870;16.058;2022-08-21T09:18:40;97046.34;;;20.07;68.91
49515;BME280;35415;47.870;16.058;2022-08-21T09:21:22;97023.31;;;19.96;68.99
49515;BME280;35415;47.870;16.058;2022-08-21T09:23:55;97032.44;;;20.00;68.67
49515;BME280;35415;47.870;16.058;2022-08-21T09:26:26;97060.66;;;20.25;68.93
49515;BME280;35415;47.870;16.058;2022-08-21T09:28:58;97055.19;;;20.25;68.50
49515;BME280;35415;47.870;16.058;2022-08-21T09:31:28;97055.31;;;20.28;68.60
49515;BME280;35415;47.870;16.058;2022-08-21T09:34:00;97047.13;;;20.28;68.54
49515;BME280;35415;47.870;16.058;2022-08-21T09:36:36;97036.53;;;20.27;68.10
49515;BME280;35415;47.870;16.058;2022-08-21T09:39:05;97031.28;;;20.22;67.76
49515;BME280;35415;47.870;16.058;2022-08-21T09:41:35;97032.72;;;20.40;67.36
49515;BME280;35415;47.870;16.058;2022-08-21T09:44:03;97023.53;;;20.45;67.41
49515;BME280;35415;47.870;16.058;2022-08-21T09:46:33;97021.41;;;20.50;66.73
49515;BME280;35415;47.870;16.058;2022-08-21T09:49:03;97025.97;;;20.58;66.91
49515;BME280;35415;47.870;16.058;2022-08-21T09:51:35;97010.94;;;20.64;67.07
49515;BME280;35415;47.870;16.058;2022-08-21T09:54:14;97018.47;;;20.67;66.94
49515;BME280;35415;47.870;16.058;2022-08-21T09:56:54;97024.97;;;20.75;67.30
49515;BME280;35415;47.870;16.058;2022-08-21T09:59:39;97015.41;;;20.69;66.82
49515;BME280;35415;47.870;16.058;2022-08-21T10:02:26;97015.09;;;20.83;66.72
49515;BME280;35415;47.870;16.058;2022-08-21T10:04:55;97012.38;;;20.83;65.39
49515;BME280;35415;47.870;16.058;2022-08-21T10:07:27;97013.28;;;20.87;65.78
49515;BME280;35415;47.870;16.058;2022-08-21T10:09:59;97012.59;;;20.90;65.53
49515;BME280;35415;47.870;16.058;2022-08-21T10:12:32;97017.03;;;20.94;65.73
49515;BME280;35415;47.870;16.058;2022-08-21T10:15:17;97011.66;;;20.98;65.06
49515;BME280;35415;47.870;16.058;2022-08-21T10:17:54;97012.38;;;21.07;65.65
49515;BME280;35415;47.870;16.058;2022-08-21T10:20:30;96996.06;;;21.11;64.90
49515;BME280;35415;47.870;16.058;2022-08-21T10:23:12;97023.19;;;21.16;64.51
49515;BME280;35415;47.870;16.058;2022-08-21T10:25:50;97005.75;;;21.20;63.89
49515;BME280;35415;47.870;16.058;2022-08-21T10:28:23;97014.91;;;21.24;64.05
49515;BME280;35415;47.870;16.058;2022-08-21T10:30:59;97002.47;;;21.27;63.77
49515;BME280;35415;47.870;16.058;2022-08-21T10:33:35;97000.63;;;21.31;63.74
49515;BME280;35415;47.870;16.058;2022-08-21T10:36:12;96997.56;;;21.32;63.28
49515;BME280;35415;47.870;16.058;2022-08-21T10:38:55;97005.91;;;21.36;63.15
49515;BME280;35415;47.870;16.058;2022-08-21T10:41:35;97000.09;;;21.38;63.04
49515;BME280;35415;47.870;16.058;2022-08-21T10:44:15;97001.44;;;21.44;62.85
49515;BME280;35415;47.870;16.058;2022-08-21T10:46:51;97001.09;;;21.45;62.78
49515;BME280;35415;47.870;16.058;2022-08-21T10:49:27;96999.47;;;21.56;62.25
49515;BME280;35415;47.870;16.058;2022-08-21T10:52:14;97001.53;;;21.59;61.79
49515;BME280;35415;47.870;16.058;2022-08-21T10:54:52;96999.69;;;21.63;62.08
49515;BME280;35415;47.870;16.058;2022-08-21T10:57:27;97004.16;;;21.68;61.69
49515;BME280;35415;47.870;16.058;2022-08-21T11:00:00;96994.00;;;21.69;61.60
49515;BME280;35415;47.870;16.058;2022-08-21T11:02:33;96982.47;;;21.63;60.97
49515;BME280;35415;47.870;16.058;2022-08-21T11:05:09;96985.28;;;21.79;61.20
49515;BME280;35415;47.870;16.058;2022-08-21T11:07:44;96970.34;;;21.76;60.76
49515;BME280;35415;47.870;16.058;2022-08-21T11:10:17;96985.16;;;21.87;61.11
49515;BME280;35415;47.870;16.058;2022-08-21T11:12:52;96988.06;;;21.95;60.94
49515;BME280;35415;47.870;16.058;2022-08-21T11:15:27;96994.44;;;21.99;60.52
49515;BME280;35415;47.870;16.058;2022-08-21T11:18:02;96982.59;;;22.07;60.65
49515;BME280;35415;47.870;16.058;2022-08-21T11:20:36;96990.19;;;22.13;59.97
49515;BME280;35415;47.870;16.058;2022-08-21T11:23:11;96984.94;;;22.20;59.33
49515;BME280;35415;47.870;16.058;2022-08-21T11:25:45;96978.84;;;22.27;59.88
49515;BME280;35415;47.870;16.058;2022-08-21T11:28:20;96983.25;;;22.32;58.54
49515;BME280;35415;47.870;16.058;2022-08-21T11:30:59;96991.69;;;22.39;58.94
49515;BME280;35415;47.870;16.058;2022-08-21T11:33:41;96994.06;;;22.40;58.52
49515;BME280;35415;47.870;16.058;2022-08-21T11:36:17;96976.41;;;22.38;58.23
49515;BME280;35415;47.870;16.058;2022-08-21T11:38:57;96990.91;;;22.38;58.37
49515;BME280;35415;47.870;16.058;2022-08-21T11:41:31;96985.66;;;22.33;58.02
49515;BME280;35415;47.870;16.058;2022-08-21T11:44:09;97005.97;;;22.32;57.81
49515;BME280;35415;47.870;16.058;2022-08-21T11:46:44;96997.66;;;22.29;58.05
49515;BME280;35415;47.870;16.058;2022-08-21T11:49:46;96996.44;;;22.26;58.26
49515;BME280;35415;47.870;16.058;2022-08-21T11:52:17;97000.41;;;22.29;58.54
49515;BME280;35415;47.870;16.058;2022-08-21T11:54:52;96975.97;;;22.08;58.49
49515;BME280;35415;47.870;16.058;2022-08-21T11:57:29;96978.13;;;22.02;58.49
49515;BME280;35415;47.870;16.058;2022-08-21T12:00:01;96986.22;;;21.99;58.70
49515;BME280;35415;47.870;16.058;2022-08-21T12:02:35;96985.59;;;21.89;59.10
49515;BME280;35415;47.870;16.058;2022-08-21T12:05:08;96985.16;;;21.87;59.05
49515;BME280;35415;47.870;16.058;2022-08-21T12:07:39;96990.75;;;21.79;59.22
49515;BME280;35415;47.870;16.058;2022-08-21T12:10:09;96992.69;;;21.78;59.68
49515;BME280;35415;47.870;16.058;2022-08-21T12:12:40;96991.03;;;21.61;60.15
49515;BME280;35415;47.870;16.058;2022-08-21T12:15:26;96996.41;;;21.58;60.40
49515;BME280;35415;47.870;16.058;2022-08-21T12:17:57;96994.66;;;21.66;60.69
49515;BME280;35415;47.870;16.058;2022-08-21T12:20:43;97008.34;;;21.66;60.85
49515;BME280;35415;47.870;16.058;2022-08-21T12:23:24;97010.53;;;21.60;62.04
49515;BME280;35415;47.870;16.058;2022-08-21T12:28:47;97032.34;;;21.44;66.65
49515;BME280;35415;47.870;16.058;2022-08-21T12:31:23;97038.16;;;21.43;65.81
49515;BME280;35415;47.870;16.058;2022-08-21T12:33:56;97029.72;;;21.36;69.17
49515;BME280;35415;47.870;16.058;2022-08-21T12:36:39;97029.28;;;21.34;70.12
49515;BME280;35415;47.870;16.058;2022-08-21T12:39:12;97029.94;;;21.30;68.55
49515;BME280;35415;47.870;16.058;2022-08-21T12:41:47;97018.53;;;21.28;70.25
49515;BME280;35415;47.870;16.058;2022-08-21T12:44:29;97027.53;;;21.29;70.34
49515;BME280;35415;47.870;16.058;2022-08-21T12:47:02;97022.19;;;21.20;70.89
49515;BME280;35415;47.870;16.058;2022-08-21T12:49:33;96996.06;;;20.98;69.78
49515;BME280;35415;47.870;16.058;2022-08-21T12:52:07;97034.47;;;21.14;71.14
49515;BME280;35415;47.870;16.058;2022-08-21T12:54:40;97022.97;;;21.09;71.30
49515;BME280;35415;47.870;16.058;2022-08-21T12:57:09;97017.03;;;21.07;72.19
49515;BME280;35415;47.870;16.058;2022-08-21T12:59:45;97016.47;;;21.01;72.54
49515;BME280;35415;47.870;16.058;2022-08-21T13:02:16;97022.59;;;20.98;73.45
49515;BME280;35415;47.870;16.058;2022-08-21T13:04:45;97021.03;;;21.09;70.26
49515;BME280;35415;47.870;16.058;2022-08-21T13:07:15;97017.81;;;20.95;72.41
49515;BME280;35415;47.870;16.058;2022-08-21T13:09:46;97017.94;;;20.86;73.29
49515;BME280;35415;47.870;16.058;2022-08-21T13:12:15;97010.97;;;20.77;73.99